Time;durP1;ratioP1;P1;durP2;ratioP2;P2;SDS_P1;SDS_P2;PMS_P1;PMS_P2;Temp;Humidity;BMP_temperature;BMP_pressure;BME280_temperature;BME280_humidity;BME280_pressure;Samples;Min_cycle;Max_cycle;Signal;HPM_P1;HPM_P2
2021/11/27 00:00:35;;;;;;;30.90;14.90;;;;;;;2.20;100.00;98214.81;5075524;28;20482;-78
2021/11/27 00:03:04;;;;;;;30.00;15.32;;;;;;;2.23;100.00;98215.50;5077681;28;20106;-79
2021/11/27 00:05:38;;;;;;;32.92;15.68;;;;;;;2.29;100.00;98236.19;5076846;28;20074;-79
2021/11/27 00:08:08;;;;;;;30.45;16.25;;;;;;;2.38;100.00;98241.84;5076720;28;20033;-79
2021/11/27 00:10:38;;;;;;;29.88;14.23;;;;;;;2.41;100.00;98246.91;5076844;28;20047;-79
2021/11/27 00:13:07;;;;;;;26.90;14.25;;;;;;;2.39;100.00;98252.28;5076118;28;20063;-79
2021/11/27 00:15:38;;;;;;;32.40;15.82;;;;;;;2.32;100.00;98247.44;5076132;28;20048;-78
2021/11/27 00:18:08;;;;;;;25.45;13.30;;;;;;;2.27;100.00;98245.94;5075915;28;20040;-78
2021/11/27 00:20:39;;;;;;;28.60;12.88;;;;;;;2.13;100.00;98251.19;5076291;28;20472;-78
2021/11/27 00:23:08;;;;;;;25.25;11.88;;;;;;;2.06;100.00;98241.09;5076136;28;20123;-78
2021/11/27 00:25:37;;;;;;;16.98;7.95;;;;;;;1.94;100.00;98226.88;5075858;28;20047;-78
2021/11/27 00:28:05;;;;;;;17.33;8.65;;;;;;;1.92;100.00;98244.50;5074350;28;20425;-78
2021/11/27 00:30:38;;;;;;;27.55;12.90;;;;;;;1.91;100.00;98237.53;5075339;28;20044;-76
2021/11/27 00:33:07;;;;;;;29.33;14.10;;;;;;;1.95;100.00;98236.44;5074884;28;20128;-76
2021/11/27 00:35:36;;;;;;;32.15;16.52;;;;;;;2.01;100.00;98238.72;5074639;28;20489;-76
2021/11/27 00:38:06;;;;;;;26.20;13.93;;;;;;;2.09;100.00;98243.53;5074571;28;20048;-77
2021/11/27 00:40:38;;;;;;;33.42;14.93;;;;;;;2.16;100.00;98232.56;5074760;28;20118;-77
2021/11/27 00:43:08;;;;;;;29.02;14.52;;;;;;;2.14;100.00;98239.72;5073982;28;20036;-77
2021/11/27 00:45:42;;;;;;;28.17;12.90;;;;;;;2.18;100.00;98233.34;5074659;28;20044;-78
2021/11/27 00:48:12;;;;;;;30.23;14.27;;;;;;;2.18;100.00;98224.59;5074625;28;20090;-80
2021/11/27 00:50:44;;;;;;;25.60;12.60;;;;;;;1.99;100.00;98240.59;5074571;28;20045;-79
2021/11/27 00:53:12;;;;;;;21.90;10.02;;;;;;;2.03;100.00;98236.88;5074247;28;20049;-80
2021/11/27 00:55:41;;;;;;;27.45;13.35;;;;;;;2.08;100.00;98239.22;5073806;28;20045;-80
2021/11/27 00:58:11;;;;;;;26.73;11.93;;;;;;;2.11;100.00;98234.63;5074205;28;20401;-81
2021/11/27 01:00:44;;;;;;;30.35;14.57;;;;;;;2.11;100.00;98225.88;5074201;28;20072;-76
2021/11/27 01:03:13;;;;;;;;;;;;;;;2.04;100.00;98222.78;5074211;28;20142;-75
2021/11/27 01:05:42;;;;;;;19.88;9.18;;;;;;;2.08;100.00;98237.44;5073679;28;19924;-75
2021/11/27 01:08:11;;;;;;;25.30;13.00;;;;;;;2.11;100.00;98239.03;5073751;28;20482;-82
2021/11/27 01:10:54;;;;;;;24.17;13.00;;;;;;;2.24;100.00;98235.63;5074822;28;20045;-87
2021/11/27 01:13:22;;;;;;;31.58;14.43;;;;;;;2.29;100.00;98241.44;5076060;28;20109;-87
2021/11/27 01:15:53;;;;;;;26.33;13.73;;;;;;;2.25;100.00;98253.09;5074482;28;20072;-80
2021/11/27 01:18:22;;;;;;;24.20;12.23;;;;;;;2.18;100.00;98257.00;5074175;28;20132;-82
2021/11/27 01:20:54;;;;;;;24.83;13.52;;;;;;;2.20;100.00;98264.81;5073557;28;20048;-82
2021/11/27 01:23:23;;;;;;;28.63;14.65;;;;;;;2.26;100.00;98270.56;5073603;28;20154;-82
2021/11/27 01:25:53;;;;;;;27.88;13.80;;;;;;;2.35;100.00;98279.72;5073673;28;20040;-86
2021/11/27 01:28:23;;;;;;;26.90;13.20;;;;;;;2.31;100.00;98267.66;5073762;28;20059;-87
2021/11/27 01:30:57;;;;;;;22.60;11.77;;;;;;;2.32;100.00;98269.38;5073970;28;20037;-85
2021/11/27 01:33:28;;;;;;;24.70;11.60;;;;;;;2.24;100.00;98272.44;5076415;28;20424;-84
2021/11/27 01:35:57;;;;;;;21.35;10.00;;;;;;;2.16;100.00;98269.41;5073058;28;20502;-81
2021/11/27 01:38:25;;;;;;;25.42;12.77;;;;;;;2.09;100.00;98262.78;5073259;28;20481;-84
2021/11/27 01:40:55;;;;;;;23.45;12.40;;;;;;;2.07;100.00;98277.81;5078699;28;20052;-85
2021/11/27 01:43:26;;;;;;;20.70;11.00;;;;;;;2.00;100.00;98268.56;5073885;28;20049;-84
2021/11/27 01:45:56;;;;;;;27.23;14.00;;;;;;;2.06;100.00;98273.50;5073157;28;20048;-84
2021/11/27 01:48:25;;;;;;;27.98;14.30;;;;;;;2.13;100.00;98277.47;5073373;28;20045;-84
2021/11/27 01:50:58;;;;;;;27.77;13.52;;;;;;;2.10;100.00;98280.25;5073202;28;20452;-85
2021/11/27 01:53:29;;;;;;;20.60;10.02;;;;;;;2.03;100.00;98278.94;5080943;28;20047;-83
2021/11/27 01:56:03;;;;;;;25.83;12.63;;;;;;;1.99;100.00;98277.41;5075072;28;20052;-84
2021/11/27 01:58:33;;;;;;;23.10;10.80;;;;;;;1.99;100.00;98272.13;5073456;28;20052;-79
2021/11/27 02:01:07;;;;;;;19.35;8.95;;;;;;;1.91;100.00;98264.69;5072891;28;20075;-79
2021/11/27 02:03:37;;;;;;;19.35;8.88;;;;;;;1.93;100.00;98260.22;5073257;28;20482;-79
2021/11/27 02:06:06;;;;;;;26.38;12.48;;;;;;;1.98;100.00;98255.53;5072585;28;20049;-79
2021/11/27 02:08:35;;;;;;;28.02;14.07;;;;;;;2.11;100.00;98257.44;5073079;28;20032;-80
2021/11/27 02:11:05;;;;;;;25.88;13.25;;;;;;;2.14;100.00;98255.50;5071492;28;20044;-79
2021/11/27 02:13:34;;;;;;;29.95;13.25;;;;;;;2.20;100.00;98270.06;5072813;28;20044;-79
2021/11/27 02:16:05;;;;;;;28.85;13.95;;;;;;;2.18;100.00;98258.78;5072355;28;20045;-79
2021/11/27 02:18:33;;;;;;;25.38;13.30;;;;;;;2.10;100.00;98256.59;5073176;28;20048;-79
2021/11/27 02:21:07;;;;;;;23.70;11.60;;;;;;;2.04;100.00;98253.50;5072701;28;20036;-79
2021/11/27 02:23:36;;;;;;;22.27;10.75;;;;;;;2.02;100.00;98258.81;5073128;28;20083;-83
2021/11/27 02:26:07;;;;;;;27.65;13.68;;;;;;;1.98;100.00;98244.16;5072869;28;20056;-80
2021/11/27 02:28:39;;;;;;;23.65;11.68;;;;;;;2.02;100.00;98237.78;5073095;28;20040;-79
2021/11/27 02:31:08;;;;;;;24.42;11.85;;;;;;;2.00;100.00;98235.22;5072366;28;20044;-79
2021/11/27 02:33:37;;;;;;;16.35;8.23;;;;;;;1.89;100.00;98235.00;5072749;28;20102;-79
2021/11/27 02:36:07;;;;;;;29.42;13.90;;;;;;;1.77;100.00;98237.50;5072283;28;20047;-78
2021/11/27 02:38:38;;;;;;;18.33;8.77;;;;;;;1.81;100.00;98241.63;5072973;28;20533;-78
2021/11/27 02:41:07;;;;;;;30.05;15.18;;;;;;;1.83;100.00;98234.50;5072477;28;20313;-78
2021/11/27 02:43:36;;;;;;;30.98;14.68;;;;;;;1.99;100.00;98246.69;5072903;28;20048;-78
2021/11/27 02:46:04;;;;;;;28.90;13.23;;;;;;;2.05;100.00;98245.50;5072466;28;20068;-80
2021/11/27 02:48:33;;;;;;;30.20;14.43;;;;;;;2.06;100.00;98255.09;5072905;28;20448;-85
2021/11/27 02:51:01;;;;;;;30.67;14.20;;;;;;;2.02;100.00;98266.69;5072604;28;20478;-84
2021/11/27 02:53:32;;;;;;;27.27;12.85;;;;;;;2.08;100.00;98276.88;5072334;28;20067;-85
2021/11/27 02:56:02;;;;;;;27.08;13.93;;;;;;;2.15;100.00;98288.75;5072651;28;20072;-85
2021/11/27 02:58:31;;;;;;;29.67;15.10;;;;;;;2.24;100.00;98298.75;5072967;28;20056;-86
2021/11/27 03:01:01;;;;;;;25.35;13.27;;;;;;;2.23;100.00;98288.31;5072380;28;20047;-85
2021/11/27 03:03:33;;;;;;;26.88;13.10;;;;;;;2.14;100.00;98281.81;5072490;28;20048;-85
2021/11/27 03:06:02;;;;;;;24.63;12.40;;;;;;;2.03;100.00;98281.56;5072131;28;20055;-82
2021/11/27 03:08:32;;;;;;;26.92;12.75;;;;;;;1.99;100.00;98277.41;5070908;28;20044;-83
2021/11/27 03:11:04;;;;;;;27.40;14.25;;;;;;;1.93;100.00;98272.47;5072355;28;20482;-83
2021/11/27 03:13:37;;;;;;;27.13;13.43;;;;;;;2.03;100.00;98289.47;5072661;28;20091;-84
2021/11/27 03:16:05;;;;;;;25.20;12.45;;;;;;;2.05;100.00;98287.59;5071965;28;20037;-84
2021/11/27 03:18:34;;;;;;;26.02;13.48;;;;;;;2.06;100.00;98291.06;5072648;28;20043;-89
2021/11/27 03:21:03;;;;;;;17.23;8.80;;;;;;;2.08;100.00;98281.28;5072407;28;20068;-86
2021/11/27 03:23:34;;;;;;;25.42;13.10;;;;;;;2.05;100.00;98286.75;5072312;28;20044;-86
2021/11/27 03:26:05;;;;;;;27.38;14.35;;;;;;;1.99;100.00;98282.66;5071918;28;20044;-88
2021/11/27 03:28:33;;;;;;;25.92;11.63;;;;;;;1.95;100.00;98282.00;5073679;28;20079;-89
2021/11/27 03:31:01;;;;;;;29.73;14.30;;;;;;;2.07;100.00;98296.22;5075684;28;20037;-87
2021/11/27 03:33:31;;;;;;;32.20;15.40;;;;;;;2.01;100.00;98300.03;5075749;28;20553;-84
2021/11/27 03:35:59;;;;;;;31.38;15.57;;;;;;;2.09;100.00;98302.25;5075570;28;20047;-83
2021/11/27 03:38:27;;;;;;;31.45;15.60;;;;;;;2.08;100.00;98299.69;5075785;28;20051;-84
2021/11/27 03:40:58;;;;;;;29.58;14.95;;;;;;;2.04;100.00;98306.94;5075389;28;20041;-80
2021/11/27 03:43:27;;;;;;;28.83;14.77;;;;;;;2.08;100.00;98299.69;5075455;28;20050;-79
2021/11/27 03:45:55;;;;;;;27.08;13.90;;;;;;;2.14;100.00;98308.09;5075259;28;20406;-80
2021/11/27 03:48:28;;;;;;;32.40;15.85;;;;;;;2.04;100.00;98283.25;5075518;28;20049;-79
2021/11/27 03:50:57;;;;;;;31.50;15.98;;;;;;;2.10;100.00;98295.19;5075376;28;20528;-79
2021/11/27 03:53:29;;;;;;;31.92;15.77;;;;;;;2.00;100.00;98302.75;5075548;28;20032;-79
2021/11/27 03:56:01;;;;;;;31.08;14.18;;;;;;;1.95;100.00;98289.03;5074901;28;20378;-80
2021/11/27 03:58:30;;;;;;;28.48;13.80;;;;;;;1.81;100.00;98283.69;5075180;28;20040;-79
2021/11/27 04:01:01;;;;;;;28.23;13.77;;;;;;;1.70;100.00;98297.44;5074999;28;20045;-80
2021/11/27 04:03:32;;;;;;;29.00;14.52;;;;;;;1.64;100.00;98292.50;5075225;28;20044;-78
2021/11/27 04:06:04;;;;;;;30.75;13.85;;;;;;;1.57;100.00;98292.00;5074601;28;20072;-79
2021/11/27 04:08:33;;;;;;;31.30;14.63;;;;;;;1.54;100.00;98292.16;5075102;28;20036;-79
2021/11/27 04:11:03;;;;;;;31.52;15.13;;;;;;;1.51;100.00;98284.44;5074822;28;20048;-79
2021/11/27 04:13:32;;;;;;;28.88;14.70;;;;;;;1.52;100.00;98291.41;5075152;28;20064;-79
2021/11/27 04:16:01;;;;;;;31.23;14.10;;;;;;;1.46;100.00;98289.13;5074437;28;20048;-84
2021/11/27 04:18:29;;;;;;;30.60;15.48;;;;;;;1.49;100.00;98294.22;5074955;28;20041;-85
2021/11/27 04:20:58;;;;;;;28.70;13.85;;;;;;;1.43;100.00;98299.78;5074330;28;20048;-79
2021/11/27 04:23:28;;;;;;;31.98;14.82;;;;;;;1.41;100.00;98305.13;5074634;28;20386;-79
2021/11/27 04:25:56;;;;;;;29.00;14.82;;;;;;;1.39;100.00;98314.03;5075045;28;20040;-81
2021/11/27 04:28:26;;;;;;;27.80;13.15;;;;;;;1.44;100.00;98314.59;5074544;28;20109;-79
2021/11/27 04:30:54;;;;;;;32.65;14.90;;;;;;;1.38;100.00;98317.59;5073647;28;20057;-80
2021/11/27 04:33:26;;;;;;;28.13;13.90;;;;;;;1.43;100.00;98315.53;5074919;28;20481;-80
2021/11/27 04:35:55;;;;;;;32.22;15.38;;;;;;;1.43;100.00;98315.53;5074684;28;20083;-78
2021/11/27 04:38:24;;;;;;;30.08;13.38;;;;;;;1.39;100.00;98311.41;5074336;28;20052;-78
2021/11/27 04:40:53;;;;;;;31.95;14.80;;;;;;;1.37;100.00;98310.63;5074237;28;20044;-79
2021/11/27 04:43:24;;;;;;;30.05;14.45;;;;;;;1.24;100.00;98312.19;5074434;28;20102;-79
2021/11/27 04:45:53;;;;;;;34.83;16.30;;;;;;;1.23;100.00;98334.16;5074534;28;20097;-83
2021/11/27 04:48:22;;;;;;;31.50;15.05;;;;;;;1.39;100.00;98335.03;5073810;28;20044;-78
2021/11/27 04:50:51;;;;;;;27.50;13.40;;;;;;;1.45;100.00;98339.97;5074355;28;20036;-77
2021/11/27 04:53:19;;;;;;;30.17;14.77;;;;;;;1.50;100.00;98350.22;5073980;28;20070;-77
2021/11/27 04:55:48;;;;;;;27.65;14.52;;;;;;;1.44;100.00;98354.03;5073771;28;20041;-81
2021/11/27 04:58:16;;;;;;;32.63;16.55;;;;;;;1.30;100.00;98356.53;5073528;28;20512;-83
2021/11/27 05:00:46;;;;;;;25.23;11.90;;;;;;;1.46;100.00;98357.44;5074384;28;20048;-83
2021/11/27 05:03:16;;;;;;;30.83;14.88;;;;;;;1.41;100.00;98352.41;5072628;28;20052;-80
2021/11/27 05:05:44;;;;;;;29.73;14.93;;;;;;;1.35;100.00;98354.50;5073697;28;20053;-81
2021/11/27 05:08:13;;;;;;;30.67;14.60;;;;;;;1.33;100.00;98337.97;5073419;28;20456;-80
2021/11/27 05:10:41;;;;;;;29.77;15.25;;;;;;;1.33;100.00;98343.25;5073904;28;20037;-81
2021/11/27 05:13:09;;;;;;;28.33;14.95;;;;;;;1.23;100.00;98348.13;5073629;28;20055;-82
2021/11/27 05:15:40;;;;;;;31.17;15.70;;;;;;;1.07;100.00;98361.22;5073631;28;20045;-80
2021/11/27 05:18:08;;;;;;;29.63;14.93;;;;;;;1.02;100.00;98357.97;5073143;28;20083;-80
2021/11/27 05:20:39;;;;;;;32.20;15.05;;;;;;;1.13;100.00;98347.75;5073821;28;20068;-80
2021/11/27 05:23:07;;;;;;;30.92;15.95;;;;;;;1.03;100.00;98346.53;5073480;28;20041;-80
2021/11/27 05:25:35;;;;;;;31.20;15.88;;;;;;;1.08;100.00;98351.56;5073736;28;20461;-79
2021/11/27 05:28:04;;;;;;;34.05;16.33;;;;;;;1.09;100.00;98367.25;5072264;28;20047;-80
2021/11/27 05:30:32;;;;;;;29.92;15.70;;;;;;;1.09;100.00;98369.03;5073313;28;20055;-78
2021/11/27 05:33:10;;;;;;;32.00;16.52;;;;;;;1.23;100.00;98365.66;5073193;28;20044;-87
2021/11/27 05:35:40;;;;;;;33.05;16.83;;;;;;;1.13;100.00;98360.03;5073301;28;20461;-87
2021/11/27 05:38:10;;;;;;;33.95;15.82;;;;;;;1.31;100.00;98358.25;5073374;28;20052;-85
2021/11/27 05:40:38;;;;;;;31.35;15.82;;;;;;;1.24;100.00;98356.84;5073462;28;20452;-86
2021/11/27 05:43:07;;;;;;;33.65;16.58;;;;;;;1.19;100.00;98359.72;5072918;28;20132;-88
2021/11/27 05:45:35;;;;;;;35.28;17.67;;;;;;;1.12;100.00;98364.44;5073275;28;20037;-87
2021/11/27 05:48:04;;;;;;;35.60;17.58;;;;;;;1.09;100.00;98364.63;5073161;28;20051;-85
2021/11/27 05:50:33;;;;;;;32.95;15.90;;;;;;;1.17;100.00;98368.63;5072561;28;20044;-85
2021/11/27 05:53:03;;;;;;;37.35;18.15;;;;;;;1.06;100.00;98361.28;5073405;28;20040;-86
2021/11/27 05:55:32;;;;;;;32.22;16.70;;;;;;;0.91;100.00;98356.84;5072872;28;20401;-82
2021/11/27 05:58:00;;;;;;;40.80;18.85;;;;;;;0.79;100.00;98361.78;5072673;28;20044;-82
2021/11/27 06:00:28;;;;;;;38.83;18.17;;;;;;;0.74;100.00;98365.56;5072574;28;20059;-81
2021/11/27 06:02:57;;;;;;;36.20;18.10;;;;;;;0.72;100.00;98376.13;5073294;28;20045;-81
2021/11/27 06:05:28;;;;;;;41.67;18.58;;;;;;;0.66;100.00;98381.69;5072885;28;20055;-82
2021/11/27 06:07:58;;;;;;;39.42;18.98;;;;;;;0.55;100.00;98384.84;5073323;28;20052;-81
2021/11/27 06:10:28;;;;;;;39.45;18.90;;;;;;;0.59;100.00;98389.94;5072634;28;20041;-84
2021/11/27 06:12:56;;;;;;;34.63;17.55;;;;;;;0.63;100.00;98391.50;5073191;28;20131;-83
2021/11/27 06:15:25;;;;;;;36.65;18.52;;;;;;;0.65;100.00;98387.00;5071312;28;20052;-78
2021/11/27 06:17:54;;;;;;;34.92;16.92;;;;;;;0.78;100.00;98388.13;5073034;28;20099;-78
2021/11/27 06:20:23;;;;;;;36.60;18.60;;;;;;;0.84;100.00;98390.41;5071719;28;20048;-78
2021/11/27 06:22:51;;;;;;;39.20;18.35;;;;;;;0.89;100.00;98403.31;5072995;28;20075;-79
2021/11/27 06:25:24;;;;;;;40.03;18.73;;;;;;;0.96;100.00;98415.19;5073159;28;20047;-78
2021/11/27 06:27:55;;;;;;;38.03;17.92;;;;;;;1.03;100.00;98432.34;5072654;28;20071;-78
2021/11/27 06:30:24;;;;;;;36.42;17.48;;;;;;;1.05;100.00;98441.81;5072669;28;20040;-78
2021/11/27 06:32:52;;;;;;;34.70;17.08;;;;;;;1.13;100.00;98454.56;5072889;28;20070;-81
2021/11/27 06:35:20;;;;;;;30.85;14.60;;;;;;;1.17;100.00;98450.03;5072585;28;20048;-86
2021/11/27 06:37:49;;;;;;;32.83;14.57;;;;;;;1.28;100.00;98455.59;5080705;28;20104;-85
2021/11/27 06:40:17;;;;;;;26.70;13.90;;;;;;;1.35;100.00;98451.69;5072444;28;20064;-86
2021/11/27 06:42:45;;;;;;;28.63;14.48;;;;;;;1.39;100.00;98454.09;5072561;28;20044;-77
2021/11/27 06:45:15;;;;;;;29.35;14.45;;;;;;;1.40;100.00;98458.44;5072672;28;20425;-77
2021/11/27 06:47:43;;;;;;;26.83;14.05;;;;;;;1.44;100.00;98454.69;5072454;28;20075;-78
2021/11/27 06:50:13;;;;;;;30.33;13.18;;;;;;;1.57;100.00;98452.31;5072412;28;20076;-78
2021/11/27 06:52:42;;;;;;;26.90;13.43;;;;;;;1.59;100.00;98458.34;5072676;28;20132;-77
2021/11/27 06:55:11;;;;;;;26.13;13.68;;;;;;;1.62;100.00;98455.53;5072095;28;20048;-79
2021/11/27 06:57:39;;;;;;;27.70;13.48;;;;;;;1.63;100.00;98453.75;5072565;28;20374;-77
2021/11/27 07:00:09;;;;;;;25.67;13.30;;;;;;;1.62;100.00;98455.53;5072295;28;20044;-77
2021/11/27 07:02:39;;;;;;;26.83;13.15;;;;;;;1.68;100.00;98447.34;5075321;28;20135;-78
2021/11/27 07:05:08;;;;;;;25.58;13.57;;;;;;;1.71;100.00;98449.78;5076356;28;20057;-80
2021/11/27 07:07:37;;;;;;;27.40;13.65;;;;;;;1.72;100.00;98453.28;5075016;28;20481;-80
2021/11/27 07:10:06;;;;;;;27.73;14.82;;;;;;;1.72;100.00;98454.13;5076205;28;20045;-82
2021/11/27 07:12:39;;;;;;;27.27;14.45;;;;;;;1.79;100.00;98448.53;5076100;28;20549;-80
2021/11/27 07:15:08;;;;;;;26.17;13.40;;;;;;;1.79;100.00;98444.13;5076149;28;20045;-78
2021/11/27 07:17:40;;;;;;;25.65;14.20;;;;;;;1.83;100.00;98450.91;5075708;28;20048;-84
2021/11/27 07:20:10;;;;;;;30.42;15.32;;;;;;;1.91;100.00;98447.88;5076362;28;20048;-84
2021/11/27 07:22:38;;;;;;;27.77;14.07;;;;;;;2.02;100.00;98456.03;5076261;28;20036;-84
2021/11/27 07:25:07;;;;;;;29.77;14.10;;;;;;;2.04;100.00;98461.25;5076071;28;20462;-84
2021/11/27 07:27:36;;;;;;;28.40;13.93;;;;;;;2.12;100.00;98477.44;5076488;28;20045;-84
2021/11/27 07:30:06;;;;;;;39.00;20.23;;;;;;;2.24;100.00;98475.00;5076425;28;20444;-84
2021/11/27 07:32:35;;;;;;;48.47;22.88;;;;;;;2.25;100.00;98494.28;5076365;28;20044;-82
2021/11/27 07:35:06;;;;;;;42.38;22.00;;;;;;;2.31;100.00;98478.13;5076496;28;20070;-82
2021/11/27 07:37:35;;;;;;;30.30;16.05;;;;;;;2.25;100.00;98470.59;5075648;28;20072;-80
2021/11/27 07:40:05;;;;;;;26.25;14.70;;;;;;;2.28;100.00;98471.25;5076160;28;20048;-80
2021/11/27 07:42:33;;;;;;;26.65;14.05;;;;;;;2.26;100.00;98475.78;5075177;28;20591;-79
2021/11/27 07:45:01;;;;;;;23.42;12.88;;;;;;;2.37;100.00;98469.91;5075631;28;20040;-80
2021/11/27 07:47:30;;;;;;;22.85;12.07;;;;;;;2.36;100.00;98478.75;5075248;28;20059;-75
2021/11/27 07:49:59;;;;;;;24.48;13.20;;;;;;;2.37;100.00;98483.06;5075580;28;20040;-75
2021/11/27 07:52:29;;;;;;;23.67;13.15;;;;;;;2.41;100.00;98481.09;5075284;28;20094;-77
2021/11/27 07:54:57;;;;;;;23.20;13.15;;;;;;;2.35;100.00;98489.34;5075455;28;20435;-77
2021/11/27 07:57:26;;;;;;;24.05;13.38;;;;;;;2.35;100.00;98490.22;5074964;28;20459;-83
2021/11/27 07:59:54;;;;;;;22.92;12.82;;;;;;;2.42;100.00;98490.72;5074562;28;20045;-82
2021/11/27 08:02:22;;;;;;;28.63;13.45;;;;;;;2.42;100.00;98488.94;5074735;28;20109;-84
2021/11/27 08:04:51;;;;;;;28.17;13.70;;;;;;;2.46;100.00;98482.56;5075642;28;20045;-84
2021/11/27 08:07:20;;;;;;;24.63;13.30;;;;;;;2.49;100.00;98479.75;5074951;28;20045;-85
2021/11/27 08:09:50;;;;;;;25.50;13.88;;;;;;;2.47;100.00;98488.69;5075336;28;20043;-80
2021/11/27 08:12:18;;;;;;;25.27;13.52;;;;;;;2.57;100.00;98485.44;5075163;28;20048;-85
2021/11/27 08:14:47;;;;;;;23.40;13.95;;;;;;;2.63;100.00;98481.63;5074182;28;20056;-84
2021/11/27 08:17:17;;;;;;;23.50;13.25;;;;;;;2.58;100.00;98481.03;5074933;28;20036;-77
2021/11/27 08:19:46;;;;;;;25.35;14.02;;;;;;;2.62;100.00;98482.56;5075100;28;20086;-77
2021/11/27 08:22:14;;;;;;;22.02;13.05;;;;;;;2.62;100.00;98477.31;5074568;28;20048;-77
2021/11/27 08:24:42;;;;;;;24.17;13.85;;;;;;;2.65;100.00;98482.41;5074755;28;20393;-77
2021/11/27 08:27:12;;;;;;;26.73;13.10;;;;;;;2.70;100.00;98487.38;5074590;28;20044;-76
2021/11/27 08:29:40;;;;;;;25.40;13.52;;;;;;;2.73;100.00;98485.44;5074463;28;20553;-78
2021/11/27 08:32:08;;;;;;;23.65;13.35;;;;;;;2.83;100.00;98497.16;5074912;28;20090;-78
2021/11/27 08:34:38;;;;;;;23.70;12.98;;;;;;;2.83;100.00;98501.56;5074398;28;20064;-79
2021/11/27 08:37:06;;;;;;;24.27;13.52;;;;;;;2.89;100.00;98511.75;5073890;28;20053;-81
2021/11/27 08:39:35;;;;;;;24.58;13.48;;;;;;;2.95;100.00;98505.28;5074114;28;20052;-79
2021/11/27 08:42:03;;;;;;;22.58;12.95;;;;;;;3.04;100.00;98504.78;5074273;28;20048;-82
2021/11/27 08:44:35;;;;;;;23.75;13.20;;;;;;;3.04;100.00;98516.16;5074396;28;20098;-84
2021/11/27 08:47:03;;;;;;;23.80;13.43;;;;;;;3.14;100.00;98512.06;5074807;28;20044;-85
2021/11/27 08:49:32;;;;;;;24.05;12.85;;;;;;;3.31;100.00;98518.16;5074434;28;20067;-86
2021/11/27 08:52:00;;;;;;;22.38;13.07;;;;;;;3.23;100.00;98505.41;5074652;28;20436;-75
2021/11/27 08:54:28;;;;;;;23.50;12.85;;;;;;;3.21;100.00;98502.03;5073864;28;20071;-79
2021/11/27 08:56:57;;;;;;;24.45;12.65;;;;;;;3.40;100.00;98509.72;5074124;28;20040;-78
2021/11/27 08:59:25;;;;;;;20.65;11.82;;;;;;;3.33;100.00;98501.28;5073822;28;20094;-78
2021/11/27 09:01:55;;;;;;;24.92;13.02;;;;;;;3.45;100.00;98492.66;5074000;28;20052;-77
2021/11/27 09:04:23;;;;;;;24.70;13.32;;;;;;;3.41;100.00;98485.88;5073585;28;20037;-79
2021/11/27 09:06:52;;;;;;;25.67;14.32;;;;;;;3.49;100.00;98509.16;5076419;28;20056;-83
2021/11/27 09:09:20;;;;;;;21.75;13.30;;;;;;;3.57;100.00;98509.56;5081721;28;20052;-91
2021/11/27 09:11:50;;;;;;;24.63;13.60;;;;;;;3.68;100.00;98511.56;5073730;28;20123;-79
2021/11/27 09:14:19;;;;;;;25.52;13.18;;;;;;;3.76;100.00;98500.53;5073666;28;20048;-76
2021/11/27 09:16:48;;;;;;;26.42;13.57;;;;;;;3.82;100.00;98501.03;5072933;28;20044;-76
2021/11/27 09:19:19;;;;;;;25.02;13.68;;;;;;;3.79;100.00;98503.84;5073304;28;20440;-80
2021/11/27 09:21:49;;;;;;;23.05;13.52;;;;;;;3.80;100.00;98510.81;5073508;28;20076;-87
2021/11/27 09:24:19;;;;;;;26.23;14.30;;;;;;;3.92;100.00;98504.78;5073122;28;20094;-76
2021/11/27 09:26:48;;;;;;;24.60;14.25;;;;;;;4.09;100.00;98506.41;5072506;28;20040;-75
2021/11/27 09:29:18;;;;;;;24.05;13.20;;;;;;;4.16;100.00;98509.53;5073203;28;20048;-78
2021/11/27 09:31:47;;;;;;;25.27;13.88;;;;;;;4.18;100.00;98513.75;5073224;28;20170;-79
2021/11/27 09:34:16;;;;;;;26.13;14.48;;;;;;;4.11;100.00;98503.66;5073501;28;20503;-78
2021/11/27 09:36:48;;;;;;;25.73;13.88;;;;;;;4.16;100.00;98509.53;5071800;28;20808;-78
2021/11/27 09:39:19;;;;;;;25.70;13.90;;;;;;;4.25;100.00;98506.31;5073781;28;20075;-82
2021/11/27 09:41:47;;;;;;;25.73;14.35;;;;;;;4.22;100.00;98507.34;5072949;28;20059;-78
2021/11/27 09:44:18;;;;;;;26.10;14.25;;;;;;;4.31;100.00;98511.19;5072679;28;20451;-78
2021/11/27 09:46:48;;;;;;;26.30;14.88;;;;;;;4.37;100.00;98495.00;5073087;28;20045;-78
2021/11/27 09:49:21;;;;;;;25.13;14.55;;;;;;;4.27;100.00;98501.78;5073485;28;20048;-77
2021/11/27 09:51:53;;;;;;;27.00;14.45;;;;;;;4.23;100.00;98498.47;5072780;28;20040;-78
2021/11/27 09:54:23;;;;;;;27.00;15.13;;;;;;;4.20;100.00;98514.50;5073313;28;20458;-78
2021/11/27 09:56:55;;;;;;;24.63;13.95;;;;;;;4.20;100.00;98513.66;5073199;28;20036;-80
2021/11/27 09:59:23;;;;;;;27.50;14.63;;;;;;;4.16;100.00;98512.16;5073269;28;20036;-76
2021/11/27 10:01:54;;;;;;;26.92;14.43;;;;;;;4.20;100.00;98529.50;5073095;28;20078;-76
2021/11/27 10:04:24;;;;;;;26.05;13.90;;;;;;;4.36;100.00;98524.13;5073130;28;20119;-77
2021/11/27 10:06:57;;;;;;;24.55;13.30;;;;;;;4.43;100.00;98528.06;5072814;28;20130;-74
2021/11/27 10:09:27;;;;;;;27.88;13.90;;;;;;;4.45;100.00;98508.56;5072396;28;20185;-78
2021/11/27 10:11:56;;;;;;;24.27;13.30;;;;;;;4.48;100.00;98504.88;5074201;28;20044;-85
2021/11/27 10:14:24;;;;;;;23.67;12.63;;;;;;;4.55;100.00;98511.47;5071943;28;20143;-79
2021/11/27 10:17:06;;;;;;;24.40;13.80;;;;;;;4.68;100.00;98514.19;5068519;28;20499;-79
2021/11/27 10:19:54;;;;;;;23.00;13.30;;;;;;;4.67;100.00;98504.56;5072367;28;20090;-79
2021/11/27 10:22:27;;;;;;;25.15;13.85;;;;;;;4.88;100.00;98506.66;5070689;28;20071;-82
2021/11/27 10:24:56;;;;;;;24.15;13.80;;;;;;;4.87;100.00;98506.75;5072919;28;20036;-74
2021/11/27 10:27:26;;;;;;;24.23;13.80;;;;;;;5.03;100.00;98499.53;5072478;28;20486;-80
2021/11/27 10:30:01;;;;;;;25.60;13.73;;;;;;;5.00;100.00;98494.44;5072932;28;20070;-77
2021/11/27 10:32:32;;;;;;;24.67;13.70;;;;;;;5.03;100.00;98504.84;5072669;28;20047;-75
2021/11/27 10:35:00;;;;;;;26.80;14.95;;;;;;;4.96;100.00;98494.75;5072492;28;20120;-75
2021/11/27 10:37:33;;;;;;;25.25;13.68;;;;;;;4.95;100.00;98506.28;5074958;28;20127;-76
2021/11/27 10:40:05;;;;;;;24.55;14.30;;;;;;;5.05;100.00;98508.22;5076928;28;20059;-77
2021/11/27 10:42:35;;;;;;;23.95;13.95;;;;;;;5.21;100.00;98507.19;5076269;28;20090;-75
2021/11/27 10:45:12;;;;;;;24.27;14.05;;;;;;;5.20;100.00;98500.22;5076818;28;20060;-79
2021/11/27 10:47:43;;;;;;;27.20;14.27;;;;;;;5.18;100.00;98493.25;5076115;28;20501;-78
2021/11/27 10:50:18;;;;;;;26.63;13.73;;;;;;;5.18;100.00;98493.25;5076895;28;20051;-75
2021/11/27 10:52:48;;;;;;;25.83;12.65;;;;;;;5.28;100.00;98482.91;5076122;28;20045;-75
2021/11/27 10:55:25;;;;;;;26.58;12.90;;;;;;;5.27;100.00;98483.00;5076340;28;20041;-76
2021/11/27 10:57:59;;;;;;;23.05;12.85;;;;;;;5.17;100.00;98491.53;5076500;28;20045;-75
2021/11/27 11:00:35;;;;;;;23.15;12.90;;;;;;;5.09;100.00;98490.34;5076433;28;20044;-76
2021/11/27 11:03:06;;;;;;;25.05;13.63;;;;;;;5.13;100.00;98487.44;5076466;28;20440;-76
2021/11/27 11:05:36;;;;;;;26.67;14.18;;;;;;;5.10;100.00;98484.13;5076188;28;20492;-70
2021/11/27 11:08:07;;;;;;;24.13;13.65;;;;;;;5.12;100.00;98485.72;5075967;28;20040;-70
2021/11/27 11:10:36;;;;;;;25.90;13.90;;;;;;;5.21;100.00;98491.34;5075803;28;20436;-69
2021/11/27 11:13:06;;;;;;;25.35;13.27;;;;;;;5.21;100.00;98496.63;5076278;28;20075;-69
2021/11/27 11:15:38;;;;;;;27.17;14.52;;;;;;;5.24;100.00;98501.72;5075867;28;20040;-68
2021/11/27 11:18:19;;;;;;;24.38;13.15;;;;;;;5.20;100.00;98505.50;5075846;28;20044;-68
2021/11/27 11:20:49;;;;;;;25.42;13.50;;;;;;;5.20;100.00;98502.84;5076051;28;20040;-68
2021/11/27 11:23:22;;;;;;;23.35;12.98;;;;;;;5.30;100.00;98498.66;5076109;28;20070;-69
2021/11/27 11:26:00;;;;;;;22.02;11.70;;;;;;;5.40;100.00;98491.81;5076066;28;20344;-68
2021/11/27 11:28:30;;;;;;;21.98;11.75;;;;;;;5.45;100.00;98495.00;5076133;28;20075;-68